createdAt,value
2022-09-06T00:03:16.686Z,75.47
2022-09-06T00:08:19.590Z,75.97
2022-09-06T00:13:22.509Z,76.27
2022-09-06T00:18:25.409Z,76.48
2022-09-06T00:23:28.151Z,77.07
2022-09-06T00:28:31.169Z,77.77
2022-09-06T00:33:34.125Z,78.19
2022-09-06T00:38:37.792Z,78.42
2022-09-06T00:43:41.380Z,78.59
2022-09-06T00:48:47.263Z,78.81
2022-09-06T00:53:52.104Z,78.83
2022-09-06T00:58:55.200Z,78.50
2022-09-06T01:03:58.320Z,79.02
2022-09-06T01:09:13.340Z,79.25
2022-09-06T01:14:28.925Z,79.37
2022-09-06T01:19:59.455Z,79.79
2022-09-06T01:25:28.449Z,79.85
2022-09-06T01:30:38.498Z,79.88
2022-09-06T01:35:48.109Z,79.95
2022-09-06T01:40:51.221Z,79.79
2022-09-06T01:45:57.031Z,79.82
2022-09-06T01:51:58.634Z,80.24
2022-09-06T01:57:39.820Z,80.14
2022-09-06T02:03:01.557Z,80.22
2022-09-06T02:08:29.597Z,80.59
2022-09-06T02:13:39.976Z,81.27
2022-09-06T02:18:48.035Z,81.54
2022-09-06T02:23:53.251Z,81.62
2022-09-06T02:28:57.074Z,81.82
2022-09-06T02:34:02.167Z,82.45
2022-09-06T02:39:05.675Z,82.54
2022-09-06T02:44:08.596Z,82.48
2022-09-06T02:49:11.452Z,82.40
2022-09-06T02:54:14.205Z,82.42
2022-09-06T02:59:17.307Z,82.72
2022-09-06T03:04:20.349Z,82.81
2022-09-06T03:09:23.264Z,83.13
2022-09-06T03:14:26.056Z,83.27
2022-09-06T03:19:28.936Z,83.60
2022-09-06T03:24:31.721Z,83.37
2022-09-06T03:29:34.757Z,83.31
2022-09-06T03:34:37.601Z,87.63
2022-09-06T03:39:40.963Z,87.86
2022-09-06T03:44:43.889Z,86.52
2022-09-06T03:49:48.363Z,86.33
2022-09-06T03:54:51.430Z,86.29
2022-09-06T03:59:54.196Z,86.83
2022-09-06T04:04:57.152Z,86.50
2022-09-06T04:10:00.093Z,85.18
2022-09-06T04:15:03.441Z,85.68
2022-09-06T04:20:07.342Z,85.02
2022-09-06T04:25:11.087Z,85.45
2022-09-06T04:30:14.166Z,85.23
2022-09-06T04:35:17.257Z,85.07
2022-09-06T04:40:20.472Z,83.76
2022-09-06T04:45:23.516Z,82.88
2022-09-06T04:50:26.696Z,83.04
2022-09-06T04:55:31.412Z,82.77
2022-09-06T05:00:35.903Z,82.06
2022-09-06T05:05:38.802Z,81.95
2022-09-06T05:10:41.710Z,80.91
2022-09-06T05:15:44.708Z,80.49
2022-09-06T05:20:54.699Z,79.75
2022-09-06T05:25:57.691Z,79.26
2022-09-06T05:31:24.063Z,79.28
2022-09-06T05:36:28.205Z,78.07
2022-09-06T05:41:32.620Z,77.87
2022-09-06T05:46:42.325Z,77.34
2022-09-06T05:51:51.644Z,76.50
2022-09-06T05:57:16.025Z,75.84
2022-09-06T06:02:41.212Z,69.42
2022-09-06T06:07:48.824Z,57.88
2022-09-06T06:12:55.025Z,50.15
2022-09-06T06:18:18.822Z,45.47
2022-09-06T06:23:22.239Z,39.46
2022-09-06T06:28:26.105Z,37.27
2022-09-06T06:33:29.388Z,34.81
2022-09-06T06:38:33.810Z,35.37
2022-09-06T06:43:37.962Z,38.89
2022-09-06T06:48:43.471Z,41.62
2022-09-06T06:53:47.706Z,45.33
2022-09-06T06:58:53.335Z,48.15
2022-09-06T07:03:57.295Z,50.82
2022-09-06T07:09:01.069Z,52.95
2022-09-06T07:14:03.954Z,54.78
2022-09-06T07:24:33.428Z,49.43
2022-09-06T07:29:36.431Z,43.33
2022-09-06T07:34:40.546Z,40.94
2022-09-06T07:39:43.801Z,38.00
2022-09-06T07:44:46.639Z,36.30
2022-09-06T07:55:13.198Z,32.07
2022-09-06T08:00:16.271Z,32.81
2022-09-06T08:10:42.498Z,32.35
2022-09-06T08:15:45.491Z,32.18
2022-09-06T08:20:48.287Z,31.78
2022-09-06T08:25:58.684Z,31.00
2022-09-06T08:31:17.692Z,31.54
2022-09-06T08:36:21.688Z,31.49
2022-09-06T08:41:37.148Z,32.74
2022-09-06T08:46:49.741Z,31.97
2022-09-06T08:52:15.488Z,32.57
2022-09-06T08:57:42.692Z,33.11
2022-09-06T09:02:49.476Z,34.01
2022-09-06T09:08:00.356Z,33.87
2022-09-06T09:13:07.794Z,34.01
2022-09-06T09:18:11.134Z,35.30
2022-09-06T09:23:14.170Z,35.65
2022-09-06T09:28:20.111Z,36.52
2022-09-06T09:33:28.511Z,37.59
2022-09-06T09:38:38.171Z,37.85
2022-09-06T09:43:42.668Z,39.36
2022-09-06T09:49:04.740Z,40.25
2022-09-06T09:54:10.762Z,40.91
2022-09-06T09:59:27.197Z,40.72
2022-09-06T10:04:45.713Z,41.36
2022-09-06T10:10:07.671Z,40.75
2022-09-06T10:15:13.018Z,39.86
2022-09-06T10:20:16.593Z,40.35
2022-09-06T10:25:34.583Z,39.86
2022-09-06T10:30:45.834Z,39.98
2022-09-06T10:35:48.835Z,39.20
2022-09-06T10:41:01.398Z,39.10
2022-09-06T10:46:15.011Z,39.81
2022-09-06T10:51:42.097Z,39.76
2022-09-06T10:56:56.838Z,39.78
2022-09-06T11:02:24.555Z,40.10
2022-09-06T11:07:30.454Z,40.86
2022-09-06T11:12:45.528Z,42.28
2022-09-06T11:18:04.492Z,43.17
2022-09-06T11:23:32.018Z,43.18
2022-09-06T11:28:44.813Z,43.16
2022-09-06T11:33:49.501Z,42.85
2022-09-06T11:39:02.045Z,43.22
2022-09-06T11:44:06.293Z,42.79
2022-09-06T11:49:35.764Z,42.94
2022-09-06T11:54:44.332Z,44.03
2022-09-06T11:59:47.894Z,43.12
2022-09-06T12:05:00.416Z,41.95
2022-09-06T12:10:31.571Z,43.14
2022-09-06T12:15:52.313Z,42.73
2022-09-06T12:20:56.759Z,42.08
2022-09-06T12:25:59.726Z,41.97
2022-09-06T12:31:25.277Z,41.28
2022-09-06T12:36:32.069Z,41.12
2022-09-06T12:41:44.778Z,41.59
2022-09-06T12:46:51.870Z,41.43
2022-09-06T12:52:10.862Z,42.71
2022-09-06T12:57:24.562Z,42.93
2022-09-06T13:02:41.382Z,43.46
2022-09-06T13:07:51.166Z,43.26
2022-09-06T13:12:57.501Z,42.47
2022-09-06T13:18:27.245Z,42.88
2022-09-06T13:23:40.135Z,42.54
2022-09-06T13:28:42.968Z,42.75
2022-09-06T13:34:00.363Z,42.79
2022-09-06T13:39:04.550Z,42.28
2022-09-06T13:44:08.162Z,42.71
2022-09-06T13:49:11.018Z,42.79
2022-09-06T13:54:14.761Z,43.08
2022-09-06T13:59:18.289Z,42.95
2022-09-06T14:04:21.695Z,42.08
2022-09-06T14:09:24.835Z,42.07
2022-09-06T14:14:27.710Z,43.02
2022-09-06T14:19:30.653Z,43.50
2022-09-06T14:24:33.530Z,42.80
2022-09-06T14:29:37.259Z,43.26
2022-09-06T14:34:40.068Z,42.42
2022-09-06T14:39:43.226Z,42.44
2022-09-06T14:44:46.082Z,42.81
2022-09-06T14:49:48.894Z,42.35
2022-09-06T14:54:51.726Z,42.06
2022-09-06T14:59:54.809Z,42.15
2022-09-06T15:04:57.643Z,42.59
2022-09-06T15:10:00.653Z,43.04
2022-09-06T15:15:04.155Z,43.08
2022-09-06T15:20:07.317Z,43.22
2022-09-06T15:25:10.197Z,43.40
2022-09-06T15:30:13.124Z,43.12
2022-09-06T15:35:16.486Z,43.28
2022-09-06T15:40:22.144Z,43.10
2022-09-06T15:45:24.953Z,43.31
2022-09-06T15:50:49.759Z,43.28
2022-09-06T15:55:58.723Z,43.56
2022-09-06T16:01:01.744Z,43.04
2022-09-06T16:06:26.108Z,42.43
2022-09-06T16:11:32.816Z,42.87
2022-09-06T16:16:36.651Z,42.05
2022-09-06T16:21:41.783Z,42.27
2022-09-06T16:26:48.742Z,43.06
2022-09-06T16:31:56.802Z,44.03
2022-09-06T16:37:00.436Z,44.91
2022-09-06T16:42:03.427Z,45.58
2022-09-06T16:47:07.085Z,46.10
2022-09-06T16:52:09.966Z,46.52
2022-09-06T16:57:13.323Z,47.20
2022-09-06T17:02:16.588Z,47.74
2022-09-06T17:07:20.071Z,48.34
2022-09-06T17:12:24.319Z,49.14
2022-09-06T17:17:28.029Z,50.02
2022-09-06T17:22:32.240Z,51.01
2022-09-06T17:27:35.464Z,51.48
2022-09-06T17:32:38.582Z,51.78
2022-09-06T17:37:41.343Z,52.09
2022-09-06T17:42:44.245Z,52.58
2022-09-06T17:47:47.073Z,53.30
2022-09-06T17:52:51.835Z,53.94
2022-09-06T17:57:56.112Z,54.96
2022-09-06T18:03:01.692Z,55.89
2022-09-06T18:08:04.928Z,56.46
2022-09-06T18:13:08.065Z,56.36
2022-09-06T18:18:13.028Z,56.74
2022-09-06T18:23:16.064Z,57.23
2022-09-06T18:28:18.829Z,57.70
2022-09-06T18:33:24.730Z,57.83
2022-09-06T18:38:28.235Z,58.09
2022-09-06T18:43:33.667Z,58.53
2022-09-06T18:48:39.195Z,58.60
2022-09-06T18:53:44.796Z,59.04
2022-09-06T18:58:48.122Z,59.27
2022-09-06T19:03:50.994Z,59.60
2022-09-06T19:08:55.287Z,59.65
2022-09-06T19:13:58.729Z,59.82
2022-09-06T19:19:07.374Z,59.97
2022-09-06T19:24:12.196Z,60.41
2022-09-06T19:29:17.704Z,60.50
2022-09-06T19:34:20.795Z,60.75
2022-09-06T19:39:23.630Z,60.83
2022-09-06T19:44:29.028Z,61.20
2022-09-06T19:49:31.936Z,61.56
2022-09-06T19:54:37.442Z,61.70
2022-09-06T19:59:40.521Z,62.02
2022-09-06T20:04:43.247Z,62.34
2022-09-06T20:09:48.493Z,62.64
2022-09-06T20:14:54.692Z,62.79
2022-09-06T20:19:57.465Z,63.19
2022-09-06T20:25:02.010Z,64.02
2022-09-06T20:30:05.852Z,64.01
2022-09-06T20:35:09.194Z,64.05
2022-09-06T20:40:13.193Z,64.43
2022-09-06T20:45:19.398Z,64.30
2022-09-06T20:50:23.190Z,64.53
2022-09-06T20:55:26.150Z,64.94
2022-09-06T21:00:28.996Z,65.39
2022-09-06T21:05:31.874Z,65.68
2022-09-06T21:10:35.778Z,65.68
2022-09-06T21:15:43.327Z,65.83
2022-09-06T21:20:57.077Z,66.06
2022-09-06T21:26:03.297Z,66.35
2022-09-06T21:31:22.344Z,66.63
2022-09-06T21:36:30.033Z,66.95
2022-09-06T21:41:36.443Z,66.99
2022-09-06T21:46:40.448Z,67.67
2022-09-06T21:51:43.679Z,67.53
2022-09-06T21:56:46.924Z,67.78
2022-09-06T22:01:52.876Z,68.19
2022-09-06T22:06:55.901Z,68.32
2022-09-06T22:11:58.896Z,68.72
2022-09-06T22:17:01.835Z,68.83
2022-09-06T22:22:04.659Z,69.00
2022-09-06T22:27:07.663Z,69.25
2022-09-06T22:32:10.766Z,69.72
2022-09-06T22:37:13.671Z,69.99
2022-09-06T22:42:17.017Z,70.57
2022-09-06T22:47:20.157Z,71.54
2022-09-06T22:52:22.922Z,72.80
2022-09-06T22:57:27.290Z,73.26
2022-09-06T23:02:29.996Z,73.43
2022-09-06T23:07:33.166Z,73.33
2022-09-06T23:12:36.018Z,73.53
2022-09-06T23:17:38.793Z,73.87
2022-09-06T23:22:41.989Z,74.15
2022-09-06T23:27:44.697Z,74.25
2022-09-06T23:32:47.555Z,74.31
2022-09-06T23:37:51.545Z,74.37
2022-09-06T23:42:54.286Z,74.44
2022-09-06T23:47:57.058Z,74.21
2022-09-06T23:52:59.883Z,74.33
2022-09-06T23:58:02.740Z,74.24
